createdAt,value
2022-12-03T00:00:14.151Z,95554.69
2022-12-03T00:02:42.039Z,95554.41
2022-12-03T00:05:11.015Z,95551.94
2022-12-03T00:07:40.173Z,95549.19
2022-12-03T00:10:09.485Z,95549.84
2022-12-03T00:12:37.179Z,95543.41
2022-12-03T00:15:05.798Z,95542.03
2022-12-03T00:17:33.505Z,95548.63
2022-12-03T00:20:01.705Z,95539.53
2022-12-03T00:22:29.360Z,95543.78
2022-12-03T00:24:58.348Z,95547.06
2022-12-03T00:27:26.453Z,95544.47
2022-12-03T00:29:54.484Z,95545.16
2022-12-03T00:32:22.147Z,95544.72
2022-12-03T00:34:50.620Z,95536.75
2022-12-03T00:37:18.431Z,95539.19
2022-12-03T00:39:47.201Z,95544.88
2022-12-03T00:42:16.209Z,95547.19
2022-12-03T00:44:44.497Z,95539.50
2022-12-03T00:47:12.759Z,95536.22
2022-12-03T00:49:41.474Z,95545.53
2022-12-03T00:52:09.104Z,95550.75
2022-12-03T00:54:37.224Z,95543.06
2022-12-03T00:57:05.300Z,95539.69
2022-12-03T00:59:35.072Z,95539.25
2022-12-03T01:02:02.774Z,95542.94
2022-12-03T01:04:31.231Z,95544.16
2022-12-03T01:06:58.879Z,95540.72
2022-12-03T01:09:26.786Z,95536.47
2022-12-03T01:11:54.458Z,95534.69
2022-12-03T01:14:22.822Z,95536.47
2022-12-03T01:16:52.005Z,95541.44
2022-12-03T01:19:19.908Z,95535.25
2022-12-03T01:21:49.719Z,95537.34
2022-12-03T01:24:18.691Z,95543.41
2022-12-03T01:26:47.106Z,95542.28
2022-12-03T01:29:15.121Z,95543.16
2022-12-03T01:32:16.178Z,95547.25
2022-12-03T01:34:45.564Z,95552.75
2022-12-03T01:37:13.413Z,95546.72
2022-12-03T01:39:41.093Z,95546.44
2022-12-03T01:42:10.482Z,95547.53
2022-12-03T01:44:39.455Z,95543.00
2022-12-03T01:47:11.631Z,95549.44
2022-12-03T01:49:43.254Z,95550.94
2022-12-03T01:52:15.454Z,95555.47
2022-12-03T01:54:47.658Z,95556.81
2022-12-03T01:57:22.579Z,95553.44
2022-12-03T01:59:51.230Z,95550.28
2022-12-03T02:02:23.895Z,95548.78
2022-12-03T02:04:53.210Z,95544.63
2022-12-03T02:07:26.426Z,95551.38
2022-12-03T02:09:55.518Z,95551.38
2022-12-03T02:12:28.883Z,95546.16
2022-12-03T02:14:56.839Z,95551.69
2022-12-03T02:17:25.580Z,95546.88
2022-12-03T02:19:53.911Z,95551.38
2022-12-03T02:22:38.452Z,95544.25
2022-12-03T02:25:18.941Z,95553.03
2022-12-03T02:27:47.948Z,95544.25
2022-12-03T02:30:19.921Z,95539.59
2022-12-03T02:32:48.533Z,95545.34
2022-12-03T02:35:18.624Z,95542.59
2022-12-03T02:37:49.276Z,95542.19
2022-12-03T02:40:21.517Z,95540.41
2022-12-03T02:42:52.640Z,95542.31
2022-12-03T02:45:24.092Z,95533.84
2022-12-03T02:47:54.826Z,95541.66
2022-12-03T02:50:26.667Z,95537.13
2022-12-03T02:52:56.979Z,95524.63
2022-12-03T02:55:30.772Z,95529.19
2022-12-03T02:58:04.190Z,95536.44
2022-12-03T03:00:32.793Z,95541.25
2022-12-03T03:03:01.569Z,95545.50
2022-12-03T03:05:29.433Z,95537.38
2022-12-03T03:08:00.543Z,95544.69
2022-12-03T03:10:31.085Z,95530.13
2022-12-03T03:12:59.834Z,95540.72
2022-12-03T03:15:27.528Z,95542.34
2022-12-03T03:17:56.503Z,95544.81
2022-12-03T03:20:24.188Z,95536.69
2022-12-03T03:22:52.382Z,95543.69
2022-12-03T03:25:22.358Z,95539.03
2022-12-03T03:27:52.325Z,95542.31
2022-12-03T03:30:20.151Z,95533.00
2022-12-03T03:32:48.717Z,95533.84
2022-12-03T03:35:17.875Z,95527.91
2022-12-03T03:37:46.644Z,95524.78
2022-12-03T03:40:14.430Z,95537.28
2022-12-03T03:42:42.286Z,95533.75
2022-12-03T03:45:11.860Z,95531.13
2022-12-03T03:47:40.474Z,95532.63
2022-12-03T03:50:10.704Z,95524.09
2022-12-03T03:52:40.990Z,95537.56
2022-12-03T03:55:11.210Z,95531.09
2022-12-03T03:57:40.532Z,95537.03
2022-12-03T04:00:09.713Z,95533.31
2022-12-03T04:02:39.143Z,95530.53
2022-12-03T04:05:07.932Z,95530.03
2022-12-03T04:07:35.951Z,95533.59
2022-12-03T04:10:24.561Z,95526.47
2022-12-03T04:13:00.517Z,95525.38
2022-12-03T04:15:29.052Z,95520.16
2022-12-03T04:18:17.257Z,95527.81
2022-12-03T04:20:45.021Z,95524.41
2022-12-03T04:23:12.018Z,95519.63
2022-12-03T04:25:57.259Z,95513.28
2022-12-03T04:28:42.976Z,95526.66
2022-12-03T04:31:24.821Z,95532.25
2022-12-03T04:34:26.733Z,95527.34
2022-12-03T04:36:56.243Z,95536.94
2022-12-03T04:39:24.299Z,95534.31
2022-12-03T04:41:51.964Z,95527.59
2022-12-03T04:44:36.564Z,95533.69
2022-12-03T04:47:07.277Z,95544.91
2022-12-03T04:49:37.956Z,95539.41
2022-12-03T04:52:05.906Z,95535.84
2022-12-03T04:54:34.212Z,95537.47
2022-12-03T04:57:01.987Z,95544.31
2022-12-03T04:59:30.413Z,95544.31
2022-12-03T05:01:58.965Z,95530.63
2022-12-03T05:04:27.584Z,95539.69
2022-12-03T05:06:56.695Z,95533.09
2022-12-03T05:09:24.622Z,95541.59
2022-12-03T05:11:52.284Z,95543.66
2022-12-03T05:14:20.117Z,95545.44
2022-12-03T05:16:47.860Z,95554.91
2022-12-03T05:19:15.903Z,95546.81
2022-12-03T05:21:42.552Z,95542.31
2022-12-03T05:24:11.893Z,95538.19
2022-12-03T05:26:39.515Z,95536.53
2022-12-03T05:29:07.668Z,95538.06
2022-12-03T05:31:35.324Z,95536.16
2022-12-03T05:34:04.259Z,95541.06
2022-12-03T05:36:31.909Z,95539.16
2022-12-03T05:38:59.929Z,95543.00
2022-12-03T05:41:46.400Z,95544.91
2022-12-03T05:44:18.844Z,95554.25
2022-12-03T05:46:47.895Z,95552.47
2022-12-03T05:49:15.524Z,95560.00
2022-12-03T05:51:44.043Z,95544.38
2022-12-03T05:54:12.420Z,95544.38
2022-12-03T05:56:41.408Z,95541.09
2022-12-03T05:59:09.173Z,95544.50
2022-12-03T06:01:36.784Z,95548.75
2022-12-03T06:04:05.249Z,95549.56
2022-12-03T06:06:32.920Z,95548.47
2022-12-03T06:09:00.867Z,95550.00
2022-12-03T06:11:29.802Z,95543.81
2022-12-03T06:13:59.252Z,95541.75
2022-12-03T06:16:27.214Z,95533.13
2022-12-03T06:18:55.835Z,95545.19
2022-12-03T06:21:23.461Z,95556.69
2022-12-03T06:23:51.097Z,95547.94
2022-12-03T06:26:18.726Z,95543.94
2022-12-03T06:28:47.938Z,95538.63
2022-12-03T06:31:17.345Z,95534.09
2022-12-03T06:33:45.045Z,95531.75
2022-12-03T06:36:12.736Z,95535.06
2022-12-03T06:38:40.410Z,95536.00
2022-12-03T06:41:08.127Z,95538.03
2022-12-03T06:43:35.760Z,95533.41
2022-12-03T06:46:03.496Z,95541.34
2022-12-03T06:48:32.538Z,95539.44
2022-12-03T06:51:00.799Z,95546.00
2022-12-03T06:53:28.551Z,95550.09
2022-12-03T06:55:56.667Z,95544.09
2022-12-03T06:58:24.374Z,95542.19
2022-12-03T07:00:52.677Z,95539.31
2022-12-03T07:03:21.181Z,95541.91
2022-12-03T07:05:50.214Z,95543.53
2022-12-03T07:08:17.933Z,95547.66
2022-12-03T07:10:46.003Z,95541.63
2022-12-03T07:13:13.632Z,95542.44
2022-12-03T07:15:41.366Z,95546.28
2022-12-03T07:18:09.119Z,95550.41
2022-12-03T07:20:37.653Z,95541.09
2022-12-03T07:23:06.716Z,95549.84
2022-12-03T07:25:34.716Z,95550.69
2022-12-03T07:28:02.326Z,95547.50
2022-12-03T07:30:30.687Z,95543.25
2022-12-03T07:32:58.341Z,95537.38
2022-12-03T07:35:26.058Z,95534.47
2022-12-03T07:37:53.691Z,95541.34
2022-12-03T07:40:23.249Z,95534.75
2022-12-03T07:42:50.885Z,95532.59
2022-12-03T07:45:19.311Z,95532.16
2022-12-03T07:47:46.949Z,95534.47
2022-12-03T07:50:15.558Z,95535.06
2022-12-03T07:52:43.243Z,95534.75
2022-12-03T07:55:13.247Z,95539.44
2022-12-03T07:57:42.843Z,95541.09
2022-12-03T08:00:12.416Z,95541.47
2022-12-03T08:02:40.131Z,95547.66
2022-12-03T08:05:08.881Z,95536.41
2022-12-03T08:07:36.725Z,95526.28
2022-12-03T08:10:05.400Z,95529.03
2022-12-03T08:12:40.844Z,95532.16
2022-12-03T08:15:16.129Z,95545.84
2022-12-03T08:17:45.519Z,95546.81
2022-12-03T08:20:18.824Z,95524.63
2022-12-03T08:22:49.105Z,95522.44
2022-12-03T08:25:22.286Z,95543.25
2022-12-03T08:27:50.828Z,95530.25
2022-12-03T08:30:20.819Z,95538.03
2022-12-03T08:32:49.182Z,95541.34
2022-12-03T08:35:23.426Z,95537.50
2022-12-03T08:37:58.149Z,95548.88
2022-12-03T08:40:34.776Z,95542.28
2022-12-03T08:43:02.709Z,95537.50
2022-12-03T08:45:42.050Z,95544.91
2022-12-03T08:48:25.437Z,95555.75
2022-12-03T08:50:55.635Z,95551.75
2022-12-03T08:53:33.702Z,95554.50
2022-12-03T08:56:03.065Z,95555.31
2022-12-03T08:58:49.755Z,95553.97
2022-12-03T09:01:34.466Z,95551.91
2022-12-03T09:04:19.719Z,95549.03
2022-12-03T09:06:48.435Z,95560.53
2022-12-03T09:09:16.422Z,95553.13
2022-12-03T09:11:44.803Z,95541.91
2022-12-03T09:14:18.364Z,95549.19
2022-12-03T09:16:47.953Z,95543.00
2022-12-03T09:19:15.817Z,95542.44
2022-12-03T09:21:44.754Z,95544.09
2022-12-03T09:24:13.000Z,95535.34
2022-12-03T09:26:41.186Z,95540.53
2022-12-03T09:29:12.139Z,95544.50
2022-12-03T09:31:40.522Z,95526.81
2022-12-03T09:34:09.938Z,95531.19
2022-12-03T09:36:38.283Z,95531.34
2022-12-03T09:39:06.322Z,95527.38
2022-12-03T09:41:34.246Z,95531.75
2022-12-03T09:44:04.369Z,95529.72
2022-12-03T09:46:35.168Z,95523.66
2022-12-03T09:49:03.770Z,95524.34
2022-12-03T09:51:36.340Z,95521.06
2022-12-03T09:54:06.286Z,95512.00
2022-12-03T09:56:38.953Z,95524.75
2022-12-03T09:59:08.383Z,95510.09
2022-12-03T10:01:36.233Z,95507.88
2022-12-03T10:04:04.407Z,95506.25
2022-12-03T10:06:33.489Z,95502.53
2022-12-03T10:09:01.766Z,95499.81
2022-12-03T10:11:31.428Z,95495.13
2022-12-03T10:13:59.879Z,95492.91
2022-12-03T10:16:30.331Z,95491.69
2022-12-03T10:19:01.359Z,95492.81
2022-12-03T10:21:38.412Z,95487.00
2022-12-03T10:24:26.052Z,95487.00
2022-12-03T10:26:55.606Z,95485.66
2022-12-03T10:29:31.325Z,95484.53
2022-12-03T10:32:02.924Z,95473.69
2022-12-03T10:34:32.657Z,95471.09
2022-12-03T10:37:15.405Z,95464.25
2022-12-03T10:40:00.297Z,95464.78
2022-12-03T10:42:30.339Z,95459.03
2022-12-03T10:45:19.074Z,95455.19
2022-12-03T10:48:07.912Z,95457.94
2022-12-03T10:50:36.452Z,95463.16
2022-12-03T10:53:05.978Z,95463.41
2022-12-03T10:55:39.684Z,95460.66
2022-12-03T10:58:11.735Z,95464.63
2022-12-03T11:00:39.890Z,95467.22
2022-12-03T11:03:19.277Z,95460.38
2022-12-03T11:05:47.871Z,95457.09
2022-12-03T11:08:18.760Z,95459.88
2022-12-03T11:10:57.143Z,95463.16
2022-12-03T11:13:51.368Z,95462.19
2022-12-03T11:17:08.709Z,95461.50
2022-12-03T11:19:51.117Z,95454.63
2022-12-03T11:22:30.079Z,95457.50
2022-12-03T11:25:32.070Z,95454.88
2022-12-03T11:28:37.575Z,95456.38
2022-12-03T11:31:14.952Z,95453.91
2022-12-03T11:33:44.827Z,95449.38
2022-12-03T11:36:31.650Z,95446.97
2022-12-03T11:39:04.429Z,95442.56
2022-12-03T11:41:34.150Z,95442.56
2022-12-03T11:44:06.599Z,95441.50
2022-12-03T11:46:44.530Z,95439.28
2022-12-03T11:49:30.749Z,95443.53
2022-12-03T11:51:59.581Z,95443.41
2022-12-03T11:54:27.602Z,95450.53
2022-12-03T11:56:56.411Z,95445.16
2022-12-03T11:59:24.661Z,95445.88
2022-12-03T12:01:53.774Z,95437.09
2022-12-03T12:04:31.036Z,95436.38
2022-12-03T12:06:58.715Z,95421.72
2022-12-03T12:09:52.381Z,95423.47
2022-12-03T12:12:27.869Z,95413.47
2022-12-03T12:14:56.448Z,95409.09
2022-12-03T12:17:36.171Z,95405.00
2022-12-03T12:20:28.495Z,95405.53
2022-12-03T12:22:56.822Z,95405.31
2022-12-03T12:25:42.258Z,95410.25
2022-12-03T12:28:10.012Z,95405.88
2022-12-03T12:30:37.994Z,95403.97
2022-12-03T12:33:26.144Z,95404.38
2022-12-03T12:35:55.103Z,95398.34
2022-12-03T12:38:24.234Z,95400.13
2022-12-03T12:40:52.537Z,95390.00
2022-12-03T12:43:25.346Z,95391.91
2022-12-03T12:45:55.044Z,95400.72
2022-12-03T12:48:26.788Z,95401.53
2022-12-03T12:51:01.010Z,95400.94
2022-12-03T12:53:31.412Z,95392.75
2022-12-03T12:56:01.132Z,95389.91
2022-12-03T12:58:31.667Z,95397.16
2022-12-03T13:01:02.254Z,95393.59
2022-12-03T13:03:35.333Z,95387.53
2022-12-03T13:06:04.013Z,95382.84
2022-12-03T13:08:34.823Z,95377.16
2022-12-03T13:11:04.077Z,95383.06
2022-12-03T13:13:43.101Z,95372.63
2022-12-03T13:16:17.040Z,95369.75
2022-12-03T13:18:48.642Z,95364.28
2022-12-03T13:21:23.022Z,95371.50
2022-12-03T13:23:53.362Z,95371.13
2022-12-03T13:26:34.569Z,95362.91
2022-12-03T13:29:11.908Z,95367.09
2022-12-03T13:31:43.751Z,95359.44
2022-12-03T13:34:19.873Z,95358.75
2022-12-03T13:36:55.352Z,95354.34
2022-12-03T13:39:28.853Z,95350.50
2022-12-03T13:42:14.246Z,95340.91
2022-12-03T13:44:46.743Z,95346.53
2022-12-03T13:47:19.431Z,95347.19
2022-12-03T13:49:54.075Z,95338.34
2022-12-03T13:52:24.815Z,95351.63
2022-12-03T13:54:55.242Z,95346.41
2022-12-03T13:57:23.417Z,95349.69
2022-12-03T13:59:51.524Z,95346.94
2022-12-03T14:02:20.094Z,95354.91
2022-12-03T14:04:49.197Z,95356.53
2022-12-03T14:07:17.477Z,95355.59
2022-12-03T14:09:45.110Z,95357.91
2022-12-03T14:12:33.897Z,95350.47
2022-12-03T14:15:02.328Z,95354.34
2022-12-03T14:17:31.144Z,95354.34
2022-12-03T14:20:01.631Z,95347.75
2022-12-03T14:22:30.416Z,95344.09
2022-12-03T14:24:58.866Z,95339.28
2022-12-03T14:27:27.760Z,95337.13
2022-12-03T14:29:55.814Z,95330.94
2022-12-03T14:32:24.121Z,95328.91
2022-12-03T14:34:51.834Z,95335.22
2022-12-03T14:37:21.197Z,95337.16
2022-12-03T14:39:48.824Z,95338.00
2022-12-03T14:42:18.597Z,95347.03
2022-12-03T14:44:48.837Z,95336.63
2022-12-03T14:47:18.925Z,95355.81
2022-12-03T14:49:47.044Z,95354.97
2022-12-03T14:52:15.767Z,95348.66
2022-12-03T14:54:45.460Z,95351.41
2022-12-03T14:57:15.260Z,95345.00
2022-12-03T14:59:44.054Z,95348.66
2022-12-03T15:02:13.634Z,95359.09
2022-12-03T15:04:42.013Z,95358.81
2022-12-03T15:07:10.237Z,95353.63
2022-12-03T15:09:37.927Z,95346.47
2022-12-03T15:12:08.701Z,95342.00
2022-12-03T15:14:36.407Z,95334.50
2022-12-03T15:17:04.624Z,95332.84
2022-12-03T15:19:32.348Z,95339.56
2022-12-03T15:22:00.460Z,95341.69
2022-12-03T15:24:28.618Z,95341.28
2022-12-03T15:26:56.797Z,95337.06
2022-12-03T15:29:26.050Z,95341.59
2022-12-03T15:31:54.079Z,95339.09
2022-12-03T15:34:23.004Z,95330.75
2022-12-03T15:36:51.399Z,95333.63
2022-12-03T15:39:19.075Z,95323.25
2022-12-03T15:41:47.280Z,95334.34
2022-12-03T15:44:14.953Z,95332.03
2022-12-03T15:46:44.315Z,95325.88
2022-12-03T15:49:12.780Z,95319.69
2022-12-03T15:51:40.853Z,95339.53
2022-12-03T15:54:08.474Z,95336.50
2022-12-03T15:56:37.614Z,95339.81
2022-12-03T15:59:05.840Z,95338.53
2022-12-03T16:01:33.722Z,95336.91
2022-12-03T16:04:03.444Z,95356.09
2022-12-03T16:06:31.099Z,95350.22
2022-12-03T16:08:58.756Z,95344.44
2022-12-03T16:11:26.404Z,95349.81
2022-12-03T16:13:54.311Z,95354.22
2022-12-03T16:16:22.028Z,95360.50
2022-12-03T16:18:50.078Z,95365.56
2022-12-03T16:21:23.542Z,95369.81
2022-12-03T16:23:54.691Z,95364.09
2022-12-03T16:26:22.674Z,95365.03
2022-12-03T16:28:50.348Z,95349.00
2022-12-03T16:31:18.942Z,95352.72
2022-12-03T16:33:47.039Z,95331.50
2022-12-03T16:36:15.887Z,95333.41
2022-12-03T16:38:45.373Z,95340.94
2022-12-03T16:41:12.995Z,95348.22
2022-12-03T16:43:41.168Z,95340.53
2022-12-03T16:46:25.463Z,95336.56
2022-12-03T16:48:55.441Z,95341.22
2022-12-03T16:51:26.432Z,95345.75
2022-12-03T16:53:55.943Z,95340.13
2022-12-03T16:56:23.638Z,95336.16
2022-12-03T16:58:51.293Z,95319.31
2022-12-03T17:01:19.034Z,95337.53
2022-12-03T17:03:47.131Z,95334.91
2022-12-03T17:06:14.899Z,95326.84
2022-12-03T17:08:48.772Z,95331.22
2022-12-03T17:11:19.206Z,95327.13
2022-12-03T17:13:47.357Z,95314.94
2022-12-03T17:16:15.584Z,95315.09
2022-12-03T17:18:44.678Z,95318.06
2022-12-03T17:21:12.640Z,95315.34
2022-12-03T17:23:40.449Z,95315.09
2022-12-03T17:26:08.104Z,95311.66
2022-12-03T17:28:37.469Z,95315.22
2022-12-03T17:31:05.401Z,95314.66
2022-12-03T17:33:33.246Z,95315.91
2022-12-03T17:36:01.556Z,95313.00
2022-12-03T17:38:31.629Z,95312.34
2022-12-03T17:41:03.829Z,95303.56
2022-12-03T17:43:31.882Z,95312.06
2022-12-03T17:46:01.212Z,95310.69
2022-12-03T17:48:30.035Z,95306.19
2022-12-03T17:50:58.030Z,95297.25
2022-12-03T17:53:26.573Z,95297.28
2022-12-03T17:55:54.268Z,95289.47
2022-12-03T17:58:22.065Z,95286.06
2022-12-03T18:00:49.696Z,95290.19
2022-12-03T18:03:19.802Z,95292.63
2022-12-03T18:05:47.461Z,95300.31
2022-12-03T18:08:15.394Z,95287.44
2022-12-03T18:10:43.084Z,95293.16
2022-12-03T18:13:10.970Z,95289.38
2022-12-03T18:15:39.558Z,95292.66
2022-12-03T18:18:07.424Z,95297.56
2022-12-03T18:20:36.682Z,95288.53
2022-12-03T18:23:04.905Z,95291.81
2022-12-03T18:25:32.894Z,95287.56
2022-12-03T18:28:00.508Z,95283.59
2022-12-03T18:30:28.611Z,95289.47
2022-12-03T18:32:56.353Z,95290.72
2022-12-03T18:35:24.306Z,95288.91
2022-12-03T18:37:53.358Z,95293.69
2022-12-03T18:40:24.893Z,95296.16
2022-12-03T18:42:54.398Z,95285.75
2022-12-03T18:45:22.369Z,95295.31
2022-12-03T18:47:50.268Z,95297.78
2022-12-03T18:50:18.668Z,95294.34
2022-12-03T18:52:46.402Z,95282.59
2022-12-03T18:55:19.724Z,95286.97
2022-12-03T18:57:47.393Z,95290.69
2022-12-03T19:00:17.002Z,95284.53
2022-12-03T19:05:33.687Z,95288.75
2022-12-03T19:08:02.069Z,95291.56
2022-12-03T19:10:31.743Z,95291.13
2022-12-03T19:12:59.400Z,95293.19
2022-12-03T19:15:27.047Z,95298.66
2022-12-03T19:17:54.705Z,95294.56
2022-12-03T19:20:23.597Z,95288.81
2022-12-03T19:22:51.258Z,95290.06
2022-12-03T19:25:19.114Z,95286.78
2022-12-03T19:27:49.994Z,95284.56
2022-12-03T19:30:18.197Z,95283.59
2022-12-03T19:32:45.883Z,95284.00
2022-12-03T19:35:13.557Z,95292.66
2022-12-03T19:37:41.253Z,95287.16
2022-12-03T19:40:11.222Z,95295.63
2022-12-03T19:42:39.046Z,95292.34
2022-12-03T19:45:09.393Z,95274.16
2022-12-03T19:47:37.939Z,95280.72
2022-12-03T19:50:07.132Z,95287.41
2022-12-03T19:52:36.209Z,95276.22
2022-12-03T19:55:05.054Z,95277.44
2022-12-03T19:57:32.697Z,95278.97
2022-12-03T20:00:01.076Z,95272.22
2022-12-03T20:02:30.494Z,95274.00
2022-12-03T20:04:58.230Z,95262.50
2022-12-03T20:07:26.368Z,95261.56
2022-12-03T20:09:54.436Z,95262.50
2022-12-03T20:12:22.630Z,95254.72
2022-12-03T20:14:51.576Z,95261.84
2022-12-03T20:17:19.580Z,95272.91
2022-12-03T20:19:49.016Z,95256.25
2022-12-03T20:22:16.931Z,95251.88
2022-12-03T20:24:44.600Z,95260.19
2022-12-03T20:27:12.601Z,95253.91
2022-12-03T20:29:40.512Z,95251.56
2022-12-03T20:32:08.717Z,95249.81
2022-12-03T20:34:36.488Z,95246.91
2022-12-03T20:37:06.507Z,95256.50
2022-12-03T20:39:34.220Z,95266.06
2022-12-03T20:42:02.223Z,95269.78
2022-12-03T20:44:29.939Z,95263.47
2022-12-03T20:46:57.838Z,95262.53
2022-12-03T20:49:25.530Z,95252.13
2022-12-03T20:51:53.180Z,95247.75
2022-12-03T20:54:22.199Z,95242.94
2022-12-03T20:56:50.444Z,95249.94
2022-12-03T20:59:19.278Z,95254.03
2022-12-03T21:01:47.050Z,95250.06
2022-12-03T21:04:16.291Z,95243.38
2022-12-03T21:06:44.089Z,95252.25
2022-12-03T21:09:12.929Z,95240.31
2022-12-03T21:11:43.858Z,95236.63
2022-12-03T21:14:12.383Z,95233.50
2022-12-03T21:19:30.604Z,95232.13
2022-12-03T21:21:58.651Z,95219.50
2022-12-03T21:24:26.544Z,95224.84
2022-12-03T21:26:55.958Z,95215.94
2022-12-03T21:29:24.371Z,95218.81
2022-12-03T21:31:52.450Z,95217.84
2022-12-03T21:34:20.333Z,95219.22
2022-12-03T21:36:48.392Z,95216.50
2022-12-03T21:39:16.032Z,95209.38
2022-12-03T21:42:19.337Z,95208.31
2022-12-03T21:44:33.160Z,95213.22
2022-12-03T21:47:10.774Z,95211.44
2022-12-03T21:49:41.844Z,95223.94
2022-12-03T21:52:10.302Z,95214.59
2022-12-03T21:54:37.949Z,95224.75
2022-12-03T21:57:06.086Z,95212.16
2022-12-03T21:59:35.204Z,95223.09
2022-12-03T22:02:03.186Z,95218.69
2022-12-03T22:04:30.997Z,95230.19
2022-12-03T22:06:59.231Z,95223.63
2022-12-03T22:09:27.258Z,95221.16
2022-12-03T22:11:57.187Z,95228.00
2022-12-03T22:14:24.835Z,95239.91
2022-12-03T22:16:54.191Z,95231.41
2022-12-03T22:19:23.375Z,95233.22
2022-12-03T22:21:51.084Z,95225.16
2022-12-03T22:24:19.558Z,95223.53
2022-12-03T22:26:47.478Z,95208.84
2022-12-03T22:29:15.156Z,95206.25
2022-12-03T22:31:43.285Z,95224.72
2022-12-03T22:34:12.319Z,95217.34
2022-12-03T22:36:39.973Z,95223.34
2022-12-03T22:39:08.050Z,95220.34
2022-12-03T22:41:35.711Z,95220.91
2022-12-03T22:44:03.788Z,95210.50
2022-12-03T22:46:31.594Z,95204.22
2022-12-03T22:49:03.438Z,95200.66
2022-12-03T22:51:36.274Z,95198.19
2022-12-03T22:54:05.409Z,95189.69
2022-12-03T22:56:33.654Z,95186.81
2022-12-03T22:59:02.152Z,95189.00
2022-12-03T23:01:32.698Z,95184.50
2022-12-03T23:04:02.187Z,95181.31
2022-12-03T23:06:31.595Z,95184.75
2022-12-03T23:09:01.169Z,95181.06
2022-12-03T23:11:29.615Z,95170.53
2022-12-03T23:13:59.033Z,95170.25
2022-12-03T23:16:29.837Z,95163.81
2022-12-03T23:18:59.497Z,95157.25
2022-12-03T23:21:30.630Z,95161.50
2022-12-03T23:24:00.564Z,95150.41
2022-12-03T23:26:29.181Z,95144.38
2022-12-03T23:28:57.523Z,95151.38
2022-12-03T23:31:28.063Z,95153.56
2022-12-03T23:33:56.871Z,95143.84
2022-12-03T23:36:26.338Z,95142.91
2022-12-03T23:38:55.608Z,95143.97
2022-12-03T23:41:25.131Z,95148.66
2022-12-03T23:43:54.031Z,95139.84
2022-12-03T23:46:24.402Z,95146.28
2022-12-03T23:48:52.949Z,95144.25
2022-12-03T23:51:23.135Z,95123.84
2022-12-03T23:53:52.726Z,95136.00
2022-12-03T23:56:22.829Z,95139.97
2022-12-03T23:58:52.365Z,95145.88
